createdAt,value
2022-12-19T00:00:44.918Z,12.27
2022-12-19T00:03:15.775Z,15.33
2022-12-19T00:05:43.809Z,16.80
2022-12-19T00:08:17.619Z,14.20
2022-12-19T00:10:56.260Z,15.63
2022-12-19T00:13:31.170Z,14.27
2022-12-19T00:16:03.893Z,15.83
2022-12-19T00:18:31.835Z,14.30
2022-12-19T00:21:01.276Z,15.47
2022-12-19T00:23:33.335Z,15.80
2022-12-19T00:26:10.986Z,15.20
2022-12-19T00:28:46.040Z,15.27
2022-12-19T00:31:17.036Z,13.67
2022-12-19T00:33:47.891Z,15.40
2022-12-19T00:36:22.420Z,15.80
2022-12-19T00:38:51.753Z,17.33
2022-12-19T00:41:30.438Z,17.87
2022-12-19T00:43:59.414Z,18.07
2022-12-19T00:46:28.377Z,15.93
2022-12-19T00:49:01.124Z,15.83
2022-12-19T00:51:32.888Z,14.80
2022-12-19T00:54:01.077Z,15.90
2022-12-19T00:56:37.124Z,16.07
2022-12-19T00:59:08.893Z,16.53
2022-12-19T01:01:39.460Z,16.33
2022-12-19T01:07:02.522Z,16.00
2022-12-19T01:09:35.899Z,16.00
2022-12-19T01:12:24.623Z,14.60
2022-12-19T01:15:04.640Z,16.20
2022-12-19T01:17:44.280Z,14.03
2022-12-19T01:20:14.535Z,16.13
2022-12-19T01:22:42.394Z,17.27
2022-12-19T01:25:10.464Z,14.70
2022-12-19T01:27:41.649Z,16.33
2022-12-19T01:30:11.234Z,16.17
2022-12-19T01:32:40.283Z,15.63
2022-12-19T01:35:10.869Z,16.13
2022-12-19T01:37:48.711Z,17.23
2022-12-19T01:40:17.961Z,16.07
2022-12-19T01:42:50.068Z,18.47
2022-12-19T01:45:33.446Z,18.10
2022-12-19T01:48:08.345Z,18.10
2022-12-19T01:50:40.797Z,20.00
2022-12-19T01:53:19.096Z,18.77
2022-12-19T01:55:50.210Z,16.77
2022-12-19T01:58:20.354Z,19.90
2022-12-19T02:00:48.603Z,19.67
2022-12-19T02:03:22.005Z,20.83
2022-12-19T02:05:52.999Z,20.63
2022-12-19T02:08:22.109Z,21.40
2022-12-19T02:10:50.301Z,21.10
2022-12-19T02:13:20.746Z,21.10
2022-12-19T02:15:57.310Z,18.00
2022-12-19T02:18:39.919Z,20.40
2022-12-19T02:21:42.966Z,18.70
2022-12-19T02:24:35.423Z,17.23
2022-12-19T02:27:40.160Z,18.67
2022-12-19T02:30:13.556Z,19.63
2022-12-19T02:33:04.437Z,19.87
2022-12-19T02:35:42.907Z,19.83
2022-12-19T02:38:18.676Z,18.90
2022-12-19T02:40:55.644Z,20.30
2022-12-19T02:43:26.626Z,19.37
2022-12-19T02:45:56.414Z,18.83
2022-12-19T02:48:28.530Z,20.37
2022-12-19T02:50:56.562Z,23.23
2022-12-19T02:53:25.773Z,22.57
2022-12-19T02:56:22.475Z,21.20
2022-12-19T02:59:03.768Z,21.30
2022-12-19T03:01:43.432Z,20.40
2022-12-19T03:04:28.938Z,21.33
2022-12-19T03:07:03.662Z,21.97
2022-12-19T03:09:46.467Z,20.10
2022-12-19T03:12:22.898Z,22.30
2022-12-19T03:14:53.736Z,19.50
2022-12-19T03:17:22.498Z,22.03
2022-12-19T03:19:51.804Z,21.87
2022-12-19T03:22:19.915Z,20.13
2022-12-19T03:24:50.138Z,22.77
2022-12-19T03:27:23.888Z,22.53
2022-12-19T03:29:56.043Z,22.37
2022-12-19T03:32:25.791Z,21.10
2022-12-19T03:34:59.578Z,21.83
2022-12-19T03:37:32.852Z,19.93
2022-12-19T03:40:09.972Z,21.50
2022-12-19T03:42:58.928Z,20.77
2022-12-19T03:45:35.211Z,22.43
2022-12-19T03:48:09.218Z,21.37
2022-12-19T03:50:45.865Z,22.17
2022-12-19T03:53:26.007Z,18.73
2022-12-19T03:55:59.181Z,20.90
2022-12-19T03:58:32.255Z,19.63
2022-12-19T04:01:01.309Z,22.43
2022-12-19T04:03:32.001Z,21.20
2022-12-19T04:06:02.970Z,21.37
2022-12-19T04:08:33.028Z,21.50
2022-12-19T04:11:06.084Z,19.77
2022-12-19T04:13:38.838Z,19.73
2022-12-19T04:16:13.964Z,21.50
2022-12-19T04:18:47.300Z,20.50
2022-12-19T04:21:20.768Z,20.03
2022-12-19T04:23:53.374Z,18.63
2022-12-19T04:26:23.988Z,20.73
2022-12-19T04:28:55.494Z,18.43
2022-12-19T04:31:26.005Z,18.77
2022-12-19T04:33:53.849Z,19.87
2022-12-19T04:36:23.265Z,21.43
2022-12-19T04:38:51.097Z,20.50
2022-12-19T04:41:19.013Z,19.97
2022-12-19T04:43:46.938Z,19.27
2022-12-19T04:46:14.844Z,20.63
2022-12-19T04:48:42.672Z,19.87
2022-12-19T04:51:10.507Z,19.90
2022-12-19T04:53:42.217Z,19.70
2022-12-19T04:56:10.811Z,19.07
2022-12-19T04:58:38.948Z,20.90
2022-12-19T05:01:10.243Z,18.83
2022-12-19T05:03:38.622Z,19.97
2022-12-19T05:06:08.246Z,20.30
2022-12-19T05:08:36.854Z,19.60
2022-12-19T05:11:13.285Z,19.43
2022-12-19T05:13:43.906Z,19.67
2022-12-19T05:16:13.741Z,19.13
2022-12-19T05:18:41.561Z,18.23
2022-12-19T05:21:11.004Z,19.00
2022-12-19T05:23:39.452Z,16.57
2022-12-19T05:26:08.828Z,18.60
2022-12-19T05:28:36.643Z,17.13
2022-12-19T05:31:09.076Z,19.47
2022-12-19T05:33:37.182Z,16.83
2022-12-19T05:36:05.431Z,19.83
2022-12-19T05:38:58.903Z,19.10
2022-12-19T05:41:28.079Z,18.23
2022-12-19T05:43:57.238Z,19.90
2022-12-19T05:46:25.765Z,17.90
2022-12-19T05:48:54.897Z,18.50
2022-12-19T05:51:23.076Z,19.73
2022-12-19T05:53:50.913Z,18.87
2022-12-19T05:56:20.179Z,18.77
2022-12-19T05:58:51.805Z,19.17
2022-12-19T06:01:22.292Z,18.83
2022-12-19T06:03:50.823Z,19.37
2022-12-19T06:06:20.962Z,20.47
2022-12-19T06:08:54.157Z,19.50
2022-12-19T06:11:22.237Z,20.67
2022-12-19T06:13:51.593Z,18.17
2022-12-19T06:16:21.346Z,19.93
2022-12-19T06:18:49.234Z,18.97
2022-12-19T06:21:19.134Z,17.13
2022-12-19T06:23:48.171Z,17.43
2022-12-19T06:26:20.135Z,16.37
2022-12-19T06:28:48.249Z,16.13
2022-12-19T06:31:18.076Z,18.70
2022-12-19T06:33:49.421Z,19.07
2022-12-19T06:36:20.188Z,18.47
2022-12-19T06:38:48.144Z,19.77
2022-12-19T06:41:34.440Z,19.03
2022-12-19T06:44:03.734Z,19.07
2022-12-19T06:46:35.396Z,19.17
2022-12-19T06:49:03.585Z,18.73
2022-12-19T06:51:31.490Z,19.63
2022-12-19T06:53:59.730Z,19.20
2022-12-19T06:56:28.059Z,20.03
2022-12-19T06:58:55.884Z,17.63
2022-12-19T07:01:35.936Z,17.73
2022-12-19T07:04:05.405Z,18.53
2022-12-19T07:06:35.715Z,16.20
2022-12-19T07:09:03.610Z,20.40
2022-12-19T07:11:31.551Z,18.50
2022-12-19T07:13:59.441Z,19.43
2022-12-19T07:16:28.670Z,19.23
2022-12-19T07:18:56.652Z,18.13
2022-12-19T07:21:26.175Z,19.20
2022-12-19T07:23:56.420Z,18.40
2022-12-19T07:26:24.392Z,18.07
2022-12-19T07:28:52.295Z,18.93
2022-12-19T07:31:20.064Z,18.50
2022-12-19T07:33:50.051Z,19.47
2022-12-19T07:36:20.316Z,20.67
2022-12-19T07:38:52.904Z,19.23
2022-12-19T07:41:20.822Z,19.20
2022-12-19T07:43:48.711Z,19.87
2022-12-19T07:46:16.951Z,19.33
2022-12-19T07:48:44.804Z,20.03
2022-12-19T07:51:12.656Z,19.53
2022-12-19T07:53:40.451Z,19.37
2022-12-19T07:56:09.996Z,19.07
2022-12-19T07:58:38.346Z,18.67
2022-12-19T08:01:16.092Z,17.47
2022-12-19T08:03:46.571Z,19.20
2022-12-19T08:06:16.294Z,18.83
2022-12-19T08:08:44.229Z,19.50
2022-12-19T08:11:18.714Z,17.77
2022-12-19T08:13:49.216Z,18.40
2022-12-19T08:16:19.813Z,18.30
2022-12-19T08:18:53.462Z,18.57
2022-12-19T08:21:24.347Z,19.00
2022-12-19T08:23:55.565Z,19.20
2022-12-19T08:26:32.700Z,19.67
2022-12-19T08:29:05.655Z,17.03
2022-12-19T08:31:36.738Z,16.13
2022-12-19T08:34:09.751Z,19.03
2022-12-19T08:36:38.485Z,19.47
2022-12-19T08:39:15.129Z,18.53
2022-12-19T08:41:44.678Z,17.70
2022-12-19T08:44:13.262Z,18.70
2022-12-19T08:46:46.567Z,16.70
2022-12-19T08:49:17.618Z,19.13
2022-12-19T08:51:45.473Z,17.07
2022-12-19T08:54:13.476Z,16.97
2022-12-19T08:56:45.177Z,17.90
2022-12-19T08:59:24.973Z,17.80
2022-12-19T09:02:02.455Z,17.67
2022-12-19T09:05:59.913Z,17.23
2022-12-19T09:07:19.238Z,17.87
2022-12-19T09:09:47.180Z,17.77
2022-12-19T09:12:17.458Z,16.83
2022-12-19T09:14:46.704Z,18.67
2022-12-19T09:17:15.135Z,17.60
2022-12-19T09:19:47.831Z,18.33
2022-12-19T09:22:16.751Z,18.30
2022-12-19T09:24:46.434Z,17.00
2022-12-19T09:27:16.802Z,17.33
2022-12-19T09:29:54.991Z,18.20
2022-12-19T09:32:26.128Z,16.83
2022-12-19T09:34:58.384Z,16.70
2022-12-19T09:37:28.991Z,18.73
2022-12-19T09:39:59.672Z,17.30
2022-12-19T09:42:43.842Z,16.47
2022-12-19T09:45:42.036Z,17.47
2022-12-19T09:48:24.219Z,17.27
2022-12-19T09:51:09.232Z,16.33
2022-12-19T09:53:54.642Z,14.63
2022-12-19T09:56:29.878Z,17.13
2022-12-19T09:59:10.244Z,16.90
2022-12-19T10:01:50.801Z,18.03
2022-12-19T10:04:20.252Z,17.67
2022-12-19T10:07:12.835Z,16.13
2022-12-19T10:12:34.499Z,16.13
2022-12-19T10:12:49.822Z,18.23
2022-12-19T10:15:29.734Z,16.63
2022-12-19T10:18:13.753Z,18.07
2022-12-19T10:20:49.945Z,16.67
2022-12-19T10:23:48.378Z,17.30
2022-12-19T10:26:20.752Z,16.83
2022-12-19T10:29:08.076Z,17.00
2022-12-19T10:31:41.482Z,18.90
2022-12-19T10:34:22.819Z,17.73
2022-12-19T10:39:53.177Z,17.27
2022-12-19T10:42:35.602Z,16.50
2022-12-19T10:45:14.336Z,16.93
2022-12-19T10:47:44.560Z,16.40
2022-12-19T10:50:24.059Z,17.37
2022-12-19T10:52:54.957Z,16.23
2022-12-19T10:55:28.818Z,16.47
2022-12-19T10:57:59.255Z,18.07
2022-12-19T11:00:29.160Z,16.40
2022-12-19T11:03:16.840Z,16.80
2022-12-19T11:05:58.147Z,17.10
2022-12-19T11:08:33.142Z,18.07
2022-12-19T11:12:08.320Z,16.70
2022-12-19T11:18:17.094Z,16.37
2022-12-19T11:21:26.893Z,16.60
2022-12-19T11:29:19.403Z,16.53
2022-12-19T11:29:37.686Z,17.67
2022-12-19T11:30:08.652Z,17.40
2022-12-19T11:30:43.838Z,16.97
2022-12-19T11:34:16.809Z,16.97
2022-12-19T11:36:50.762Z,18.43
2022-12-19T11:39:26.480Z,16.37
2022-12-19T11:42:02.103Z,17.87
2022-12-19T11:44:35.601Z,16.97
2022-12-19T11:47:13.527Z,17.37
2022-12-19T11:49:46.274Z,17.40
2022-12-19T11:53:02.421Z,18.90
2022-12-19T11:55:25.520Z,17.03
2022-12-19T11:57:55.279Z,17.10
2022-12-19T12:00:25.958Z,14.00
2022-12-19T12:03:28.395Z,14.93
2022-12-19T12:05:58.508Z,17.20
2022-12-19T12:10:56.283Z,17.07
2022-12-19T12:17:39.190Z,16.77
2022-12-19T12:25:02.731Z,15.63
2022-12-19T12:31:01.793Z,14.73
2022-12-19T12:31:01.843Z,17.37
2022-12-19T12:31:47.165Z,17.67
2022-12-19T12:31:52.739Z,17.50
2022-12-19T12:32:05.064Z,15.93
2022-12-19T12:35:32.823Z,18.37
2022-12-19T12:39:04.703Z,17.00
2022-12-19T12:42:02.374Z,16.90
2022-12-19T12:44:36.299Z,17.03
2022-12-19T12:47:16.490Z,17.50
2022-12-19T12:49:47.492Z,17.00
2022-12-19T12:52:20.889Z,18.00
2022-12-19T12:54:53.824Z,18.50
2022-12-19T12:57:36.477Z,17.07
2022-12-19T13:00:24.700Z,17.07
2022-12-19T13:02:57.361Z,15.77
2022-12-19T13:05:35.602Z,17.53
2022-12-19T13:08:46.980Z,15.90
2022-12-19T13:11:55.909Z,14.13
2022-12-19T13:14:45.341Z,17.47
2022-12-19T13:17:46.010Z,17.47
2022-12-19T13:20:45.666Z,18.70
2022-12-19T13:23:34.044Z,17.97
2022-12-19T13:26:01.963Z,18.10
2022-12-19T13:28:41.795Z,17.43
2022-12-19T13:31:22.900Z,17.60
2022-12-19T13:34:28.101Z,18.37
2022-12-19T13:39:55.537Z,17.00
2022-12-19T13:40:30.565Z,16.47
2022-12-19T13:43:27.226Z,18.90
2022-12-19T13:45:57.691Z,17.10
2022-12-19T13:48:31.651Z,17.13
2022-12-19T13:51:08.435Z,16.63
2022-12-19T13:53:41.809Z,15.43
2022-12-19T13:56:14.995Z,16.60
2022-12-19T13:58:48.315Z,15.40
2022-12-19T14:01:26.027Z,15.83
2022-12-19T14:03:56.448Z,20.70
2022-12-19T14:06:31.454Z,19.17
2022-12-19T14:11:23.678Z,18.27
2022-12-19T14:12:18.427Z,17.90
2022-12-19T14:15:13.491Z,17.87
2022-12-19T14:17:49.167Z,17.50
2022-12-19T14:22:02.055Z,18.67
2022-12-19T14:23:14.189Z,19.83
2022-12-19T14:28:19.824Z,19.57
2022-12-19T14:28:50.701Z,20.57
2022-12-19T14:31:25.537Z,19.47
2022-12-19T14:36:50.709Z,17.53
2022-12-19T14:39:28.867Z,17.20
2022-12-19T14:42:56.999Z,19.40
2022-12-19T14:54:02.606Z,16.97
2022-12-19T14:54:09.039Z,18.87
2022-12-19T14:54:37.408Z,18.57
2022-12-19T14:57:25.291Z,17.37
2022-12-19T15:01:07.828Z,16.83
2022-12-19T15:03:29.264Z,16.40
2022-12-19T15:07:07.604Z,16.93
2022-12-19T15:11:00.712Z,17.10
2022-12-19T15:14:20.296Z,16.97
2022-12-19T15:15:22.477Z,14.80
2022-12-19T15:17:52.346Z,13.27
2022-12-19T15:20:20.384Z,12.77
2022-12-19T15:22:48.511Z,14.80
2022-12-19T15:25:44.121Z,15.00
2022-12-19T15:28:13.014Z,16.63
2022-12-19T15:30:44.115Z,16.83
2022-12-19T15:33:15.810Z,15.90
2022-12-19T15:35:44.075Z,14.67
2022-12-19T15:38:11.996Z,14.83
2022-12-19T15:40:42.643Z,17.27
2022-12-19T15:43:53.155Z,13.70
2022-12-19T15:46:07.420Z,15.53
2022-12-19T15:48:40.283Z,14.23
2022-12-19T15:51:13.127Z,13.17
2022-12-19T15:53:41.627Z,15.20
2022-12-19T15:56:26.092Z,15.67
2022-12-19T15:58:55.759Z,16.90
2022-12-19T16:01:25.570Z,14.23
2022-12-19T16:03:54.008Z,14.90
2022-12-19T16:06:22.201Z,15.20
2022-12-19T16:08:50.164Z,14.20
2022-12-19T16:11:20.884Z,16.57
2022-12-19T16:13:52.974Z,15.20
2022-12-19T16:16:21.438Z,16.87
2022-12-19T16:19:01.799Z,14.47
2022-12-19T16:21:34.289Z,16.33
2022-12-19T16:24:02.447Z,16.50
2022-12-19T16:26:34.433Z,14.83
2022-12-19T16:29:02.821Z,15.33
2022-12-19T16:31:30.792Z,17.03
2022-12-19T16:34:02.311Z,16.37
2022-12-19T16:36:30.108Z,16.90
2022-12-19T16:38:57.895Z,17.23
2022-12-19T16:41:28.455Z,15.37
2022-12-19T16:43:57.128Z,16.73
2022-12-19T16:46:30.856Z,11.97
2022-12-19T16:49:00.197Z,13.60
2022-12-19T16:51:29.172Z,15.27
2022-12-19T16:53:59.818Z,16.70
2022-12-19T16:56:31.388Z,17.20
2022-12-19T16:59:01.963Z,16.97
2022-12-19T17:01:30.821Z,17.33
2022-12-19T17:03:59.990Z,17.17
2022-12-19T17:06:27.851Z,17.93
2022-12-19T17:08:55.776Z,17.00
2022-12-19T17:11:26.360Z,16.83
2022-12-19T17:13:58.138Z,15.30
2022-12-19T17:16:26.089Z,14.90
2022-12-19T17:18:54.273Z,17.37
2022-12-19T17:21:24.423Z,17.30
2022-12-19T17:23:54.979Z,15.40
2022-12-19T17:26:22.886Z,17.53
2022-12-19T17:28:51.105Z,16.23
2022-12-19T17:31:24.605Z,15.73
2022-12-19T17:33:55.341Z,14.90
2022-12-19T17:36:34.749Z,18.07
2022-12-19T17:39:18.313Z,15.10
2022-12-19T17:41:46.219Z,15.37
2022-12-19T17:44:14.232Z,16.37
2022-12-19T17:46:42.295Z,17.47
2022-12-19T17:49:17.638Z,17.10
2022-12-19T17:51:52.233Z,16.60
2022-12-19T17:54:23.228Z,15.27
2022-12-19T17:56:53.668Z,16.40
2022-12-19T17:59:21.811Z,15.50
2022-12-19T18:01:49.864Z,16.23
2022-12-19T18:04:21.066Z,17.77
2022-12-19T18:06:50.838Z,16.70
2022-12-19T18:09:20.471Z,15.43
2022-12-19T18:11:48.817Z,15.43
2022-12-19T18:14:17.261Z,17.00
2022-12-19T18:16:46.366Z,17.33
2022-12-19T18:19:19.584Z,14.90
2022-12-19T18:21:51.471Z,16.57
2022-12-19T18:24:19.419Z,15.57
2022-12-19T18:26:47.481Z,15.47
2022-12-19T18:29:16.352Z,15.97
2022-12-19T18:31:50.577Z,16.17
2022-12-19T18:34:21.638Z,14.47
2022-12-19T18:36:51.270Z,15.70
2022-12-19T18:39:24.310Z,15.87
2022-12-19T18:41:52.996Z,16.23
2022-12-19T18:44:22.633Z,15.03
2022-12-19T18:46:51.576Z,16.50
2022-12-19T18:49:22.885Z,15.87
2022-12-19T18:51:52.244Z,15.33
2022-12-19T18:54:23.117Z,15.63
2022-12-19T18:56:51.931Z,15.00
2022-12-19T18:59:20.076Z,14.33
2022-12-19T19:01:48.657Z,16.07
2022-12-19T19:04:18.011Z,15.37
2022-12-19T19:06:51.527Z,17.17
2022-12-19T19:09:22.741Z,13.67
2022-12-19T19:12:15.508Z,16.73
2022-12-19T19:14:43.427Z,15.43
2022-12-19T19:17:24.664Z,15.93
2022-12-19T19:19:52.732Z,15.50
2022-12-19T19:22:20.842Z,15.07
2022-12-19T19:24:50.579Z,15.73
2022-12-19T19:27:18.566Z,15.50
2022-12-19T19:29:49.576Z,16.23
2022-12-19T19:32:17.669Z,15.33
2022-12-19T19:34:47.857Z,14.90
2022-12-19T19:37:16.848Z,15.87
2022-12-19T19:39:44.979Z,16.47
2022-12-19T19:42:14.302Z,15.23
2022-12-19T19:44:42.240Z,15.50
2022-12-19T19:47:10.450Z,16.03
2022-12-19T19:49:39.715Z,14.83
2022-12-19T19:52:07.680Z,14.43
2022-12-19T19:54:36.482Z,15.00
2022-12-19T19:57:04.513Z,16.53
2022-12-19T19:59:33.961Z,14.30
2022-12-19T20:02:02.125Z,13.90
2022-12-19T20:04:30.560Z,16.23
2022-12-19T20:07:00.991Z,18.20
2022-12-19T20:09:31.285Z,17.80
2022-12-19T20:12:02.280Z,15.43
2022-12-19T20:14:30.140Z,13.77
2022-12-19T20:17:01.485Z,13.63
2022-12-19T20:19:29.326Z,15.20
2022-12-19T20:21:58.718Z,13.40
2022-12-19T20:24:29.307Z,14.20
2022-12-19T20:26:57.910Z,13.60
2022-12-19T20:29:26.780Z,13.93
2022-12-19T20:31:56.397Z,14.17
2022-12-19T20:34:25.945Z,15.10
2022-12-19T20:36:53.945Z,14.83
2022-12-19T20:39:22.925Z,14.03
2022-12-19T20:41:51.280Z,15.60
2022-12-19T20:44:24.435Z,15.33
2022-12-19T20:46:52.732Z,14.50
2022-12-19T20:49:21.553Z,14.00
2022-12-19T20:51:50.843Z,12.93
2022-12-19T20:54:19.187Z,13.83
2022-12-19T20:56:47.219Z,13.83
2022-12-19T20:59:15.168Z,13.47
2022-12-19T21:01:43.212Z,11.27
2022-12-19T21:04:11.520Z,12.03
2022-12-19T21:06:41.244Z,12.50
2022-12-19T21:09:11.481Z,11.10
2022-12-19T21:11:40.109Z,12.40
2022-12-19T21:14:11.603Z,11.83
2022-12-19T21:16:39.592Z,12.77
2022-12-19T21:19:07.582Z,12.40
2022-12-19T21:21:38.411Z,13.97
2022-12-19T21:24:06.550Z,12.67
2022-12-19T21:26:35.753Z,11.60
2022-12-19T21:29:03.897Z,13.60
2022-12-19T21:31:32.168Z,13.20
2022-12-19T21:34:02.433Z,12.50
2022-12-19T21:36:32.133Z,12.63
2022-12-19T21:39:02.013Z,13.73
2022-12-19T21:41:30.170Z,11.87
2022-12-19T21:44:00.514Z,13.33
2022-12-19T21:46:33.179Z,13.07
2022-12-19T21:49:02.904Z,11.57
2022-12-19T21:51:32.717Z,11.40
2022-12-19T21:54:02.675Z,12.53
2022-12-19T21:56:31.937Z,10.97
2022-12-19T21:59:06.467Z,11.97
2022-12-19T22:01:35.107Z,12.13
2022-12-19T22:04:07.041Z,11.90
2022-12-19T22:06:38.063Z,12.07
2022-12-19T22:09:08.109Z,10.70
2022-12-19T22:11:36.916Z,11.00
2022-12-19T22:14:06.941Z,12.50
2022-12-19T22:16:35.890Z,11.43
2022-12-19T22:19:06.658Z,12.70
2022-12-19T22:21:35.406Z,11.90
2022-12-19T22:24:05.814Z,12.77
2022-12-19T22:26:35.530Z,13.13
2022-12-19T22:29:09.743Z,13.57
2022-12-19T22:31:39.113Z,13.63
2022-12-19T22:34:11.841Z,14.00
2022-12-19T22:36:41.247Z,13.07
2022-12-19T22:39:11.849Z,13.07
2022-12-19T22:41:42.905Z,14.33
2022-12-19T22:44:17.317Z,12.83
2022-12-19T22:46:45.218Z,11.83
2022-12-19T22:49:14.214Z,14.67
2022-12-19T22:51:42.504Z,13.70
2022-12-19T22:54:11.889Z,16.03
2022-12-19T22:56:42.505Z,13.90
2022-12-19T22:59:14.386Z,14.73
2022-12-19T23:01:44.228Z,13.63
2022-12-19T23:04:15.180Z,14.90
2022-12-19T23:06:43.556Z,14.57
2022-12-19T23:09:16.011Z,13.63
2022-12-19T23:11:48.551Z,14.30
2022-12-19T23:14:19.560Z,13.07
2022-12-19T23:16:47.788Z,12.83
2022-12-19T23:19:16.889Z,12.93
2022-12-19T23:21:45.004Z,12.83
2022-12-19T23:24:15.246Z,13.43
2022-12-19T23:26:43.394Z,13.80
2022-12-19T23:29:13.255Z,12.20
2022-12-19T23:31:44.935Z,11.07
2022-12-19T23:34:13.291Z,12.47
2022-12-19T23:39:29.026Z,9.47
2022-12-19T23:41:57.068Z,11.40
2022-12-19T23:44:25.059Z,10.70
2022-12-19T23:47:00.814Z,12.00
2022-12-19T23:49:30.954Z,12.40
2022-12-19T23:52:01.557Z,13.40
2022-12-19T23:54:29.470Z,14.47
2022-12-19T23:56:57.406Z,13.77
2022-12-19T23:59:27.668Z,13.80
